sensor_id;sensor_type;location;lat;lon;timestamp;pressure;altitude;pressure_sealevel;temperature;humidity
54816;BME280;40715;55.752;37.884;2022-09-09T00:04:03;99737.81;;;10.78;53.46
54816;BME280;40715;55.752;37.884;2022-09-09T00:06:42;99740.41;;;10.80;53.60
54816;BME280;40715;55.752;37.884;2022-09-09T00:09:21;99749.16;;;10.82;53.51
54816;BME280;40715;55.752;37.884;2022-09-09T00:12:04;99744.75;;;10.82;53.21
54816;BME280;40715;55.752;37.884;2022-09-09T00:17:35;99745.50;;;10.89;53.48
54816;BME280;40715;55.752;37.884;2022-09-09T00:20:13;99747.25;;;10.88;53.37
54816;BME280;40715;55.752;37.884;2022-09-09T00:22:51;99744.56;;;10.90;53.45
54816;BME280;40715;55.752;37.884;2022-09-09T00:25:31;99747.16;;;10.93;53.34
54816;BME280;40715;55.752;37.884;2022-09-09T00:28:01;99748.00;;;10.95;53.30
54816;BME280;40715;55.752;37.884;2022-09-09T00:30:32;99758.53;;;10.95;53.28
54816;BME280;40715;55.752;37.884;2022-09-09T00:33:10;99758.56;;;10.94;53.29
54816;BME280;40715;55.752;37.884;2022-09-09T00:35:42;99762.06;;;10.94;53.29
54816;BME280;40715;55.752;37.884;2022-09-09T00:38:19;99753.31;;;10.94;53.23
54816;BME280;40715;55.752;37.884;2022-09-09T00:41:01;99759.44;;;10.94;53.17
54816;BME280;40715;55.752;37.884;2022-09-09T00:43:31;99760.28;;;10.96;53.12
54816;BME280;40715;55.752;37.884;2022-09-09T00:54:23;99767.25;;;10.99;52.85
54816;BME280;40715;55.752;37.884;2022-09-09T00:57:30;99766.25;;;11.04;53.04
54816;BME280;40715;55.752;37.884;2022-09-09T01:08:06;99763.72;;;10.98;52.87
54816;BME280;40715;55.752;37.884;2022-09-09T01:10:52;99776.00;;;11.01;52.83
54816;BME280;40715;55.752;37.884;2022-09-09T01:13:24;99774.31;;;10.97;52.78
54816;BME280;40715;55.752;37.884;2022-09-09T01:15:53;99778.72;;;10.96;52.89
54816;BME280;40715;55.752;37.884;2022-09-09T01:18:28;99777.81;;;10.97;52.86
54816;BME280;40715;55.752;37.884;2022-09-09T01:24:08;99790.06;;;11.00;52.83
54816;BME280;40715;55.752;37.884;2022-09-09T01:26:43;99791.81;;;11.01;53.21
54816;BME280;40715;55.752;37.884;2022-09-09T01:29:16;99788.28;;;11.02;52.91
54816;BME280;40715;55.752;37.884;2022-09-09T01:31:57;99788.25;;;11.03;53.05
54816;BME280;40715;55.752;37.884;2022-09-09T01:34:28;99785.66;;;11.02;52.84
54816;BME280;40715;55.752;37.884;2022-09-09T01:37:10;99797.91;;;11.03;52.76
54816;BME280;40715;55.752;37.884;2022-09-09T01:39:41;99799.59;;;11.05;52.73
54816;BME280;40715;55.752;37.884;2022-09-09T01:42:12;99801.41;;;11.05;52.88
54816;BME280;40715;55.752;37.884;2022-09-09T01:44:40;99797.03;;;11.02;52.86
54816;BME280;40715;55.752;37.884;2022-09-09T01:47:07;99806.59;;;11.08;52.75
54816;BME280;40715;55.752;37.884;2022-09-09T01:49:35;99788.28;;;11.02;52.78
54816;BME280;40715;55.752;37.884;2022-09-09T01:52:02;99799.53;;;11.09;52.78
54816;BME280;40715;55.752;37.884;2022-09-09T01:54:31;99811.00;;;11.08;52.75
54816;BME280;40715;55.752;37.884;2022-09-09T01:57:20;99807.50;;;11.07;52.83
54816;BME280;40715;55.752;37.884;2022-09-09T01:59:51;99801.47;;;11.02;52.69
54816;BME280;40715;55.752;37.884;2022-09-09T02:02:49;99804.09;;;11.02;52.83
54816;BME280;40715;55.752;37.884;2022-09-09T02:05:43;99813.75;;;11.01;52.76
54816;BME280;40715;55.752;37.884;2022-09-09T02:08:23;99814.72;;;10.97;52.83
54816;BME280;40715;55.752;37.884;2022-09-09T02:11:05;99816.53;;;10.95;52.61
54816;BME280;40715;55.752;37.884;2022-09-09T02:13:36;99814.03;;;10.89;52.76
54816;BME280;40715;55.752;37.884;2022-09-09T02:16:18;99823.78;;;10.84;52.91
54816;BME280;40715;55.752;37.884;2022-09-09T02:18:56;99820.41;;;10.77;52.82
54816;BME280;40715;55.752;37.884;2022-09-09T02:21:25;99824.00;;;10.75;53.02
54816;BME280;40715;55.752;37.884;2022-09-09T02:23:57;99810.09;;;10.66;53.01
54816;BME280;40715;55.752;37.884;2022-09-09T02:26:26;99814.47;;;10.67;52.98
54816;BME280;40715;55.752;37.884;2022-09-09T02:28:55;99818.09;;;10.62;53.17
54816;BME280;40715;55.752;37.884;2022-09-09T02:31:25;99819.97;;;10.55;53.33
54816;BME280;40715;55.752;37.884;2022-09-09T02:33:56;99812.94;;;10.54;53.42
54816;BME280;40715;55.752;37.884;2022-09-09T02:36:27;99822.66;;;10.52;53.34
54816;BME280;40715;55.752;37.884;2022-09-09T02:38:56;99835.00;;;10.48;53.47
54816;BME280;40715;55.752;37.884;2022-09-09T02:41:32;99826.47;;;10.35;53.65
54816;BME280;40715;55.752;37.884;2022-09-09T02:44:00;99840.44;;;10.41;53.70
54816;BME280;40715;55.752;37.884;2022-09-09T02:49:43;99856.25;;;10.41;53.76
54816;BME280;40715;55.752;37.884;2022-09-09T02:52:21;99857.22;;;10.33;53.73
54816;BME280;40715;55.752;37.884;2022-09-09T02:54:57;99860.75;;;10.31;53.97
54816;BME280;40715;55.752;37.884;2022-09-09T02:57:28;99863.41;;;10.31;53.80
54816;BME280;40715;55.752;37.884;2022-09-09T03:00:00;99864.25;;;10.31;54.11
54816;BME280;40715;55.752;37.884;2022-09-09T03:02:29;99857.97;;;10.40;54.17
54816;BME280;40715;55.752;37.884;2022-09-09T03:04:56;99862.97;;;10.56;54.06
54816;BME280;40715;55.752;37.884;2022-09-09T03:07:24;99864.09;;;10.91;53.96
54816;BME280;40715;55.752;37.884;2022-09-09T03:09:53;99850.34;;;11.17;53.75
54816;BME280;40715;55.752;37.884;2022-09-09T03:12:20;99870.47;;;11.63;53.26
54816;BME280;40715;55.752;37.884;2022-09-09T03:14:47;99874.16;;;11.95;52.64
54816;BME280;40715;55.752;37.884;2022-09-09T03:17:14;99877.63;;;12.33;52.11
54816;BME280;40715;55.752;37.884;2022-09-09T03:19:41;99884.03;;;12.90;51.43
54816;BME280;40715;55.752;37.884;2022-09-09T03:22:09;99882.25;;;13.54;50.70
54816;BME280;40715;55.752;37.884;2022-09-09T03:24:36;99879.25;;;14.21;49.84
54816;BME280;40715;55.752;37.884;2022-09-09T03:27:03;99876.06;;;14.89;48.84
54816;BME280;40715;55.752;37.884;2022-09-09T03:29:30;99886.88;;;15.55;47.78
54816;BME280;40715;55.752;37.884;2022-09-09T03:31:57;99883.84;;;16.10;46.73
54816;BME280;40715;55.752;37.884;2022-09-09T03:34:24;99885.41;;;15.94;45.67
54816;BME280;40715;55.752;37.884;2022-09-09T03:36:51;99886.63;;;15.61;45.69
54816;BME280;40715;55.752;37.884;2022-09-09T03:39:18;99887.50;;;15.85;45.76
54816;BME280;40715;55.752;37.884;2022-09-09T03:41:45;99892.16;;;16.66;45.21
54816;BME280;40715;55.752;37.884;2022-09-09T03:44:14;99868.88;;;17.31;44.23
54816;BME280;40715;55.752;37.884;2022-09-09T03:46:41;99892.88;;;18.25;43.08
54816;BME280;40715;55.752;37.884;2022-09-09T03:49:08;99900.19;;;19.09;41.49
54816;BME280;40715;55.752;37.884;2022-09-09T03:51:36;99908.59;;;19.84;40.27
54816;BME280;40715;55.752;37.884;2022-09-09T03:54:05;99910.22;;;20.49;39.19
54816;BME280;40715;55.752;37.884;2022-09-09T03:56:34;99913.38;;;21.16;37.77
54816;BME280;40715;55.752;37.884;2022-09-09T03:59:02;99908.84;;;21.75;36.62
54816;BME280;40715;55.752;37.884;2022-09-09T04:01:29;99917.00;;;22.42;35.53
54816;BME280;40715;55.752;37.884;2022-09-09T04:03:56;99915.91;;;22.98;34.60
54816;BME280;40715;55.752;37.884;2022-09-09T04:06:24;99917.53;;;23.52;33.39
54816;BME280;40715;55.752;37.884;2022-09-09T04:08:52;99925.16;;;24.08;32.85
54816;BME280;40715;55.752;37.884;2022-09-09T04:11:19;99926.19;;;24.67;31.56
54816;BME280;40715;55.752;37.884;2022-09-09T04:13:47;99926.56;;;25.20;31.11
54816;BME280;40715;55.752;37.884;2022-09-09T04:16:14;99926.59;;;25.77;30.02
54816;BME280;40715;55.752;37.884;2022-09-09T04:18:42;99915.66;;;26.33;29.07
54816;BME280;40715;55.752;37.884;2022-09-09T04:21:09;99916.66;;;26.86;28.09
54816;BME280;40715;55.752;37.884;2022-09-09T04:23:37;99921.53;;;27.34;27.50
54816;BME280;40715;55.752;37.884;2022-09-09T04:26:04;99914.47;;;27.84;26.54
54816;BME280;40715;55.752;37.884;2022-09-09T04:28:34;99932.97;;;28.39;25.67
54816;BME280;40715;55.752;37.884;2022-09-09T04:31:11;99925.97;;;28.95;25.08
54816;BME280;40715;55.752;37.884;2022-09-09T04:33:41;99939.53;;;29.52;24.21
54816;BME280;40715;55.752;37.884;2022-09-09T04:36:08;99936.59;;;30.01;23.83
54816;BME280;40715;55.752;37.884;2022-09-09T04:38:35;99942.47;;;30.42;22.66
54816;BME280;40715;55.752;37.884;2022-09-09T04:41:02;99943.59;;;30.94;22.32
54816;BME280;40715;55.752;37.884;2022-09-09T04:43:30;99942.56;;;31.39;21.78
54816;BME280;40715;55.752;37.884;2022-09-09T04:45:57;99936.97;;;31.75;20.74
54816;BME280;40715;55.752;37.884;2022-09-09T04:48:26;99950.28;;;32.21;20.50
54816;BME280;40715;55.752;37.884;2022-09-09T04:51:01;99946.25;;;32.75;19.71
54816;BME280;40715;55.752;37.884;2022-09-09T04:53:29;99950.16;;;33.21;19.40
54816;BME280;40715;55.752;37.884;2022-09-09T04:56:06;99959.63;;;33.59;18.56
54816;BME280;40715;55.752;37.884;2022-09-09T04:58:34;99953.63;;;34.11;17.86
54816;BME280;40715;55.752;37.884;2022-09-09T05:01:11;99957.00;;;34.45;17.68
54816;BME280;40715;55.752;37.884;2022-09-09T05:03:39;99956.63;;;34.79;17.35
54816;BME280;40715;55.752;37.884;2022-09-09T05:06:08;99954.91;;;35.16;16.90
54816;BME280;40715;55.752;37.884;2022-09-09T05:08:37;99958.09;;;35.58;16.36
54816;BME280;40715;55.752;37.884;2022-09-09T05:11:22;99966.06;;;36.04;16.01
54816;BME280;40715;55.752;37.884;2022-09-09T05:13:51;99966.19;;;36.48;15.99
54816;BME280;40715;55.752;37.884;2022-09-09T05:16:19;99972.13;;;36.94;14.90
54816;BME280;40715;55.752;37.884;2022-09-09T05:18:47;99978.22;;;37.46;14.34
54816;BME280;40715;55.752;37.884;2022-09-09T05:21:15;99973.59;;;37.82;14.12
54816;BME280;40715;55.752;37.884;2022-09-09T05:23:43;99986.63;;;38.15;13.58
54816;BME280;40715;55.752;37.884;2022-09-09T05:26:14;99970.00;;;38.37;13.64
54816;BME280;40715;55.752;37.884;2022-09-09T05:28:43;99972.41;;;38.87;13.23
54816;BME280;40715;55.752;37.884;2022-09-09T05:31:12;99977.75;;;39.22;12.78
54816;BME280;40715;55.752;37.884;2022-09-09T05:33:40;99981.50;;;39.61;12.53
54816;BME280;40715;55.752;37.884;2022-09-09T05:36:11;99981.59;;;39.99;12.21
54816;BME280;40715;55.752;37.884;2022-09-09T05:38:42;99981.69;;;40.25;11.85
54816;BME280;40715;55.752;37.884;2022-09-09T05:41:10;99984.56;;;40.50;11.74
54816;BME280;40715;55.752;37.884;2022-09-09T05:43:38;99989.63;;;40.85;11.11
54816;BME280;40715;55.752;37.884;2022-09-09T05:46:10;99988.09;;;41.14;10.85
54816;BME280;40715;55.752;37.884;2022-09-09T05:48:40;99994.03;;;41.62;11.05
54816;BME280;40715;55.752;37.884;2022-09-09T05:51:10;99991.50;;;41.97;10.68
54816;BME280;40715;55.752;37.884;2022-09-09T05:53:39;99988.44;;;42.05;10.33
54816;BME280;40715;55.752;37.884;2022-09-09T05:56:08;99996.25;;;42.27;9.79
54816;BME280;40715;55.752;37.884;2022-09-09T05:58:38;99995.50;;;42.50;9.79
54816;BME280;40715;55.752;37.884;2022-09-09T06:01:10;100001.03;;;42.81;9.35
54816;BME280;40715;55.752;37.884;2022-09-09T06:03:39;100000.00;;;43.29;9.38
54816;BME280;40715;55.752;37.884;2022-09-09T06:06:10;100000.59;;;43.67;8.90
54816;BME280;40715;55.752;37.884;2022-09-09T06:08:39;100006.22;;;44.07;8.49
54816;BME280;40715;55.752;37.884;2022-09-09T06:11:27;99996.09;;;44.59;9.03
54816;BME280;40715;55.752;37.884;2022-09-09T06:13:58;100007.50;;;44.74;8.42
54816;BME280;40715;55.752;37.884;2022-09-09T06:16:27;100012.56;;;44.94;8.23
54816;BME280;40715;55.752;37.884;2022-09-09T06:18:56;100012.97;;;45.03;7.63
54816;BME280;40715;55.752;37.884;2022-09-09T06:21:27;100017.13;;;45.18;7.39
54816;BME280;40715;55.752;37.884;2022-09-09T06:23:55;100019.97;;;45.40;7.40
54816;BME280;40715;55.752;37.884;2022-09-09T06:26:31;100012.34;;;45.69;7.20
54816;BME280;40715;55.752;37.884;2022-09-09T06:29:00;99998.00;;;45.99;6.74
54816;BME280;40715;55.752;37.884;2022-09-09T06:31:29;100011.72;;;46.56;6.89
54816;BME280;40715;55.752;37.884;2022-09-09T06:33:58;100024.94;;;46.98;6.58
54816;BME280;40715;55.752;37.884;2022-09-09T06:38:53;100026.50;;;47.53;5.97
54816;BME280;40715;55.752;37.884;2022-09-09T06:41:21;100015.84;;;47.45;5.71
54816;BME280;40715;55.752;37.884;2022-09-09T06:43:49;100023.06;;;45.99;6.41
54816;BME280;40715;55.752;37.884;2022-09-09T06:46:18;100013.25;;;45.19;6.38
54816;BME280;40715;55.752;37.884;2022-09-09T06:48:45;100024.47;;;43.32;7.14
54816;BME280;40715;55.752;37.884;2022-09-09T06:51:20;100017.06;;;41.30;7.89
54816;BME280;40715;55.752;37.884;2022-09-09T06:53:51;100024.16;;;41.70;8.17
54816;BME280;40715;55.752;37.884;2022-09-09T06:56:25;100018.06;;;40.85;7.87
54816;BME280;40715;55.752;37.884;2022-09-09T06:58:59;100016.28;;;39.62;8.14
54816;BME280;40715;55.752;37.884;2022-09-09T07:01:32;100019.47;;;37.25;8.60
54816;BME280;40715;55.752;37.884;2022-09-09T07:04:00;99998.59;;;34.00;10.08
54816;BME280;40715;55.752;37.884;2022-09-09T07:06:32;99970.09;;;31.62;11.53
54816;BME280;40715;55.752;37.884;2022-09-09T07:09:00;99977.22;;;30.49;12.17
54816;BME280;40715;55.752;37.884;2022-09-09T07:11:30;100008.91;;;32.33;11.91
54816;BME280;40715;55.752;37.884;2022-09-09T07:13:58;100004.34;;;33.58;11.29
54816;BME280;40715;55.752;37.884;2022-09-09T07:16:26;100007.22;;;35.45;11.21
54816;BME280;40715;55.752;37.884;2022-09-09T07:18:58;100031.25;;;39.99;9.23
54816;BME280;40715;55.752;37.884;2022-09-09T07:21:28;100037.22;;;44.74;7.25
54816;BME280;40715;55.752;37.884;2022-09-09T07:23:55;100052.09;;;48.77;5.50
54816;BME280;40715;55.752;37.884;2022-09-09T07:26:25;100059.38;;;51.74;4.28
54816;BME280;40715;55.752;37.884;2022-09-09T07:28:53;100035.09;;;50.11;4.22
54816;BME280;40715;55.752;37.884;2022-09-09T07:31:24;100052.38;;;46.79;5.31
54816;BME280;40715;55.752;37.884;2022-09-09T07:33:53;100042.28;;;44.07;6.02
54816;BME280;40715;55.752;37.884;2022-09-09T07:36:23;100042.19;;;41.98;6.35
54816;BME280;40715;55.752;37.884;2022-09-09T07:38:58;100039.69;;;40.18;7.52
54816;BME280;40715;55.752;37.884;2022-09-09T07:41:48;100039.47;;;42.58;6.71
54816;BME280;40715;55.752;37.884;2022-09-09T07:44:23;100043.50;;;42.44;6.63
54816;BME280;40715;55.752;37.884;2022-09-09T07:46:51;100035.69;;;40.14;7.29
54816;BME280;40715;55.752;37.884;2022-09-09T07:49:18;100047.19;;;38.83;8.17
54816;BME280;40715;55.752;37.884;2022-09-09T07:51:52;100039.19;;;39.22;8.06
54816;BME280;40715;55.752;37.884;2022-09-09T07:54:19;100055.66;;;42.43;7.43
54816;BME280;40715;55.752;37.884;2022-09-09T07:56:47;100062.84;;;44.76;6.65
54816;BME280;40715;55.752;37.884;2022-09-09T07:59:14;100065.91;;;47.67;5.50
54816;BME280;40715;55.752;37.884;2022-09-09T08:01:43;100087.31;;;50.52;4.22
54816;BME280;40715;55.752;37.884;2022-09-09T08:04:17;100093.50;;;52.73;3.70
54816;BME280;40715;55.752;37.884;2022-09-09T08:06:59;100078.53;;;51.08;3.69
54816;BME280;40715;55.752;37.884;2022-09-09T08:09:28;100071.97;;;46.89;4.66
54816;BME280;40715;55.752;37.884;2022-09-09T08:11:56;100076.09;;;42.91;6.04
54816;BME280;40715;55.752;37.884;2022-09-09T08:14:23;100058.28;;;39.30;7.13
54816;BME280;40715;55.752;37.884;2022-09-09T08:16:51;100051.25;;;36.69;8.43
54816;BME280;40715;55.752;37.884;2022-09-09T08:19:20;100048.75;;;35.10;9.11
54816;BME280;40715;55.752;37.884;2022-09-09T08:21:47;100038.69;;;33.19;10.00
54816;BME280;40715;55.752;37.884;2022-09-09T08:24:16;100043.75;;;31.53;10.87
54816;BME280;40715;55.752;37.884;2022-09-09T08:26:45;100045.47;;;30.18;12.20
54816;BME280;40715;55.752;37.884;2022-09-09T08:29:13;100049.03;;;32.66;11.99
54816;BME280;40715;55.752;37.884;2022-09-09T08:31:49;100061.59;;;38.72;9.39
54816;BME280;40715;55.752;37.884;2022-09-09T08:34:17;100074.88;;;42.56;7.47
54816;BME280;40715;55.752;37.884;2022-09-09T08:36:47;100063.03;;;40.67;7.52
54816;BME280;40715;55.752;37.884;2022-09-09T08:39:17;100061.72;;;37.74;8.39
54816;BME280;40715;55.752;37.884;2022-09-09T08:47:08;100070.53;;;38.94;8.81
54816;BME280;40715;55.752;37.884;2022-09-09T08:58:17;100072.63;;;38.79;7.53
54816;BME280;40715;55.752;37.884;2022-09-09T09:00:54;100055.97;;;35.64;9.29
54816;BME280;40715;55.752;37.884;2022-09-09T09:03:46;100062.59;;;33.42;10.30
54816;BME280;40715;55.752;37.884;2022-09-09T09:08:49;100073.41;;;38.66;9.01
54816;BME280;40715;55.752;37.884;2022-09-09T09:11:18;100068.75;;;41.04;7.76
54816;BME280;40715;55.752;37.884;2022-09-09T09:14:25;100068.97;;;40.71;7.33
54816;BME280;40715;55.752;37.884;2022-09-09T09:16:53;100077.31;;;37.95;8.83
54816;BME280;40715;55.752;37.884;2022-09-09T09:19:21;100062.31;;;35.26;9.71
54816;BME280;40715;55.752;37.884;2022-09-09T09:22:11;100069.09;;;32.40;10.98
54816;BME280;40715;55.752;37.884;2022-09-09T09:24:52;100069.50;;;30.12;12.45
54816;BME280;40715;55.752;37.884;2022-09-09T09:27:35;100063.25;;;28.16;13.47
54816;BME280;40715;55.752;37.884;2022-09-09T09:30:17;100057.44;;;26.50;14.62
54816;BME280;40715;55.752;37.884;2022-09-09T09:32:56;100047.53;;;25.25;15.68
54816;BME280;40715;55.752;37.884;2022-09-09T09:35:25;100043.66;;;24.56;16.39
54816;BME280;40715;55.752;37.884;2022-09-09T09:37:52;100046.06;;;24.48;16.78
54816;BME280;40715;55.752;37.884;2022-09-09T09:40:48;100050.34;;;24.88;16.75
54816;BME280;40715;55.752;37.884;2022-09-09T09:43:23;100050.81;;;25.53;16.10
54816;BME280;40715;55.752;37.884;2022-09-09T09:45:51;100048.13;;;25.87;15.89
54816;BME280;40715;55.752;37.884;2022-09-09T09:48:38;100048.13;;;25.53;15.79
54816;BME280;40715;55.752;37.884;2022-09-09T09:51:11;100055.78;;;24.99;16.32
54816;BME280;40715;55.752;37.884;2022-09-09T09:53:40;100033.41;;;24.37;16.70
54816;BME280;40715;55.752;37.884;2022-09-09T09:56:10;100048.44;;;24.03;17.42
54816;BME280;40715;55.752;37.884;2022-09-09T10:01:32;100047.81;;;23.73;17.55
54816;BME280;40715;55.752;37.884;2022-09-09T10:04:01;100057.69;;;23.86;17.29
54816;BME280;40715;55.752;37.884;2022-09-09T10:06:35;100054.25;;;23.58;17.80
54816;BME280;40715;55.752;37.884;2022-09-09T10:12:00;100044.50;;;22.77;18.44
54816;BME280;40715;55.752;37.884;2022-09-09T10:31:01;100068.81;;;22.33;19.30
54816;BME280;40715;55.752;37.884;2022-09-09T10:34:41;100060.47;;;22.09;19.51
54816;BME280;40715;55.752;37.884;2022-09-09T10:36:58;100064.41;;;22.03;19.81
54816;BME280;40715;55.752;37.884;2022-09-09T10:39:32;100062.84;;;22.14;19.84
54816;BME280;40715;55.752;37.884;2022-09-09T10:42:05;100064.75;;;22.12;19.86
54816;BME280;40715;55.752;37.884;2022-09-09T10:55:50;100063.03;;;20.92;21.01
54816;BME280;40715;55.752;37.884;2022-09-09T10:58:31;100064.94;;;20.58;21.24
54816;BME280;40715;55.752;37.884;2022-09-09T11:01:14;100058.63;;;20.27;21.64
54816;BME280;40715;55.752;37.884;2022-09-09T11:03:43;100061.47;;;20.24;21.77
54816;BME280;40715;55.752;37.884;2022-09-09T11:06:15;100059.84;;;20.38;21.94
54816;BME280;40715;55.752;37.884;2022-09-09T11:08:45;100064.50;;;20.50;21.92
54816;BME280;40715;55.752;37.884;2022-09-09T11:11:29;100023.06;;;20.41;21.90
54816;BME280;40715;55.752;37.884;2022-09-09T11:14:19;100067.34;;;20.63;22.04
54816;BME280;40715;55.752;37.884;2022-09-09T11:16:51;100060.81;;;20.52;22.20
54816;BME280;40715;55.752;37.884;2022-09-09T11:20:00;100070.53;;;20.53;22.45
54816;BME280;40715;55.752;37.884;2022-09-09T11:22:42;100067.25;;;20.64;22.38
54816;BME280;40715;55.752;37.884;2022-09-09T11:25:23;100074.03;;;20.72;22.35
54816;BME280;40715;55.752;37.884;2022-09-09T11:27:56;100077.63;;;20.71;22.34
54816;BME280;40715;55.752;37.884;2022-09-09T11:33:51;100073.66;;;20.46;22.48
54816;BME280;40715;55.752;37.884;2022-09-09T11:41:51;100069.09;;;19.65;23.17
54816;BME280;40715;55.752;37.884;2022-09-09T11:44:28;100069.44;;;19.41;23.68
54816;BME280;40715;55.752;37.884;2022-09-09T11:46:56;100062.38;;;19.23;23.65
54816;BME280;40715;55.752;37.884;2022-09-09T11:49:43;100064.09;;;19.06;23.83
54816;BME280;40715;55.752;37.884;2022-09-09T11:52:22;100065.75;;;18.91;24.03
54816;BME280;40715;55.752;37.884;2022-09-09T11:54:49;100061.97;;;18.76;23.98
54816;BME280;40715;55.752;37.884;2022-09-09T11:57:32;100061.78;;;18.62;24.22
54816;BME280;40715;55.752;37.884;2022-09-09T12:00:01;100063.09;;;18.53;24.17
54816;BME280;40715;55.752;37.884;2022-09-09T12:02:30;100058.16;;;18.45;24.33
54816;BME280;40715;55.752;37.884;2022-09-09T12:05:07;100061.41;;;18.70;24.02
54816;BME280;40715;55.752;37.884;2022-09-09T12:07:41;100056.81;;;19.10;23.80
54816;BME280;40715;55.752;37.884;2022-09-09T12:13:18;100057.69;;;20.12;23.07
54816;BME280;40715;55.752;37.884;2022-09-09T12:15:54;100053.81;;;20.50;22.79
54816;BME280;40715;55.752;37.884;2022-09-09T12:18:23;100059.59;;;20.74;22.77
54816;BME280;40715;55.752;37.884;2022-09-09T12:21:00;100058.66;;;20.75;22.55
54816;BME280;40715;55.752;37.884;2022-09-09T12:32:10;100058.44;;;19.47;23.38
54816;BME280;40715;55.752;37.884;2022-09-09T12:34:41;100053.66;;;19.02;23.81
54816;BME280;40715;55.752;37.884;2022-09-09T12:40:05;100057.84;;;18.33;24.34
54816;BME280;40715;55.752;37.884;2022-09-09T12:42:31;100051.38;;;18.00;24.49
54816;BME280;40715;55.752;37.884;2022-09-09T12:45:25;100055.28;;;17.93;24.87
54816;BME280;40715;55.752;37.884;2022-09-09T12:47:57;100039.19;;;17.94;24.86
54816;BME280;40715;55.752;37.884;2022-09-09T12:50:29;100060.97;;;18.23;24.83
54816;BME280;40715;55.752;37.884;2022-09-09T12:52:59;100049.34;;;18.43;24.64
54816;BME280;40715;55.752;37.884;2022-09-09T12:55:31;100037.06;;;18.58;24.61
54816;BME280;40715;55.752;37.884;2022-09-09T12:58:01;100034.84;;;18.86;24.49
54816;BME280;40715;55.752;37.884;2022-09-09T13:00:32;100050.19;;;19.17;24.18
54816;BME280;40715;55.752;37.884;2022-09-09T13:03:14;100050.44;;;19.30;24.18
54816;BME280;40715;55.752;37.884;2022-09-09T13:05:43;100051.34;;;19.46;23.93
54816;BME280;40715;55.752;37.884;2022-09-09T13:08:12;100050.16;;;19.52;24.01
54816;BME280;40715;55.752;37.884;2022-09-09T13:10:50;100046.00;;;19.46;24.05
54816;BME280;40715;55.752;37.884;2022-09-09T13:13:28;100049.34;;;19.34;24.08
54816;BME280;40715;55.752;37.884;2022-09-09T13:15:59;100048.13;;;19.22;24.04
54816;BME280;40715;55.752;37.884;2022-09-09T13:18:33;100057.19;;;19.20;24.50
54816;BME280;40715;55.752;37.884;2022-09-09T13:21:00;100046.25;;;19.07;24.16
54816;BME280;40715;55.752;37.884;2022-09-09T13:23:31;100031.53;;;18.80;24.21
54816;BME280;40715;55.752;37.884;2022-09-09T13:26:01;100054.03;;;18.57;24.37
54816;BME280;40715;55.752;37.884;2022-09-09T13:28:30;100060.31;;;18.37;24.39
54816;BME280;40715;55.752;37.884;2022-09-09T13:31:19;100057.63;;;18.18;24.57
54816;BME280;40715;55.752;37.884;2022-09-09T13:33:46;100056.84;;;17.97;24.75
54816;BME280;40715;55.752;37.884;2022-09-09T13:36:13;100007.66;;;17.44;25.14
54816;BME280;40715;55.752;37.884;2022-09-09T13:38:55;100054.56;;;17.48;25.48
54816;BME280;40715;55.752;37.884;2022-09-09T13:41:29;100053.69;;;17.27;25.71
54816;BME280;40715;55.752;37.884;2022-09-09T13:43:58;100052.06;;;17.02;25.86
54816;BME280;40715;55.752;37.884;2022-09-09T13:46:40;100063.84;;;16.97;26.27
54816;BME280;40715;55.752;37.884;2022-09-09T13:51:38;100067.03;;;16.83;26.74
54816;BME280;40715;55.752;37.884;2022-09-09T13:54:09;100061.78;;;16.81;27.05
54816;BME280;40715;55.752;37.884;2022-09-09T13:56:37;100061.06;;;16.78;26.89
54816;BME280;40715;55.752;37.884;2022-09-09T13:59:10;100063.22;;;16.68;27.18
54816;BME280;40715;55.752;37.884;2022-09-09T14:01:37;100057.53;;;16.55;27.33
54816;BME280;40715;55.752;37.884;2022-09-09T14:04:04;100051.78;;;16.44;27.41
54816;BME280;40715;55.752;37.884;2022-09-09T14:06:35;100053.22;;;16.29;27.77
54816;BME280;40715;55.752;37.884;2022-09-09T14:09:10;100051.69;;;16.23;27.92
54816;BME280;40715;55.752;37.884;2022-09-09T14:11:38;100054.59;;;16.17;27.96
54816;BME280;40715;55.752;37.884;2022-09-09T14:14:05;100053.03;;;16.11;28.32
54816;BME280;40715;55.752;37.884;2022-09-09T14:16:32;100030.63;;;15.95;28.48
54816;BME280;40715;55.752;37.884;2022-09-09T14:18:59;100052.28;;;16.08;28.48
54816;BME280;40715;55.752;37.884;2022-09-09T14:21:27;100057.63;;;16.08;28.78
54816;BME280;40715;55.752;37.884;2022-09-09T14:23:54;100059.97;;;16.15;28.57
54816;BME280;40715;55.752;37.884;2022-09-09T14:26:21;100055.41;;;16.19;28.73
54816;BME280;40715;55.752;37.884;2022-09-09T14:28:48;100057.88;;;16.24;28.81
54816;BME280;40715;55.752;37.884;2022-09-09T14:31:24;100059.44;;;16.29;28.59
54816;BME280;40715;55.752;37.884;2022-09-09T14:33:52;100055.59;;;16.36;28.66
54816;BME280;40715;55.752;37.884;2022-09-09T14:36:19;100057.09;;;16.44;28.62
54816;BME280;40715;55.752;37.884;2022-09-09T14:38:46;100051.41;;;16.53;28.52
54816;BME280;40715;55.752;37.884;2022-09-09T14:41:15;100057.34;;;16.60;28.62
54816;BME280;40715;55.752;37.884;2022-09-09T14:43:46;100048.44;;;16.61;28.71
54816;BME280;40715;55.752;37.884;2022-09-09T14:46:16;100060.81;;;16.62;28.87
54816;BME280;40715;55.752;37.884;2022-09-09T14:48:43;100058.31;;;16.57;28.69
54816;BME280;40715;55.752;37.884;2022-09-09T14:51:17;100058.59;;;16.51;28.71
54816;BME280;40715;55.752;37.884;2022-09-09T14:53:46;100062.16;;;16.50;28.62
54816;BME280;40715;55.752;37.884;2022-09-09T14:56:16;100056.00;;;16.49;28.65
54816;BME280;40715;55.752;37.884;2022-09-09T14:58:43;100051.53;;;16.50;28.44